sensor_id;sensor_type;location;lat;lon;timestamp;P1;durP1;ratioP1;P2;durP2;ratioP2
3757;SDS011;1894;51.038;13.692;2022-12-07T00:01:40;11.97;;;8.90;;
3757;SDS011;1894;51.038;13.692;2022-12-07T00:04:11;13.67;;;9.10;;
3757;SDS011;1894;51.038;13.692;2022-12-07T00:06:41;11.73;;;7.67;;
3757;SDS011;1894;51.038;13.692;2022-12-07T00:09:15;10.93;;;8.03;;
3757;SDS011;1894;51.038;13.692;2022-12-07T00:11:43;9.90;;;6.50;;
3757;SDS011;1894;51.038;13.692;2022-12-07T00:14:15;10.60;;;8.37;;
3757;SDS011;1894;51.038;13.692;2022-12-07T00:16:44;11.53;;;8.03;;
3757;SDS011;1894;51.038;13.692;2022-12-07T00:19:12;11.70;;;8.87;;
3757;SDS011;1894;51.038;13.692;2022-12-07T00:21:40;12.50;;;8.23;;
3757;SDS011;1894;51.038;13.692;2022-12-07T00:24:09;10.07;;;7.97;;
3757;SDS011;1894;51.038;13.692;2022-12-07T00:26:37;17.73;;;9.40;;
3757;SDS011;1894;51.038;13.692;2022-12-07T00:29:15;12.50;;;8.90;;
3757;SDS011;1894;51.038;13.692;2022-12-07T00:31:45;12.53;;;8.60;;
3757;SDS011;1894;51.038;13.692;2022-12-07T00:34:14;15.43;;;9.23;;
3757;SDS011;1894;51.038;13.692;2022-12-07T00:36:44;12.73;;;8.70;;
3757;SDS011;1894;51.038;13.692;2022-12-07T00:39:11;11.20;;;7.83;;
3757;SDS011;1894;51.038;13.692;2022-12-07T00:41:39;14.30;;;9.47;;
3757;SDS011;1894;51.038;13.692;2022-12-07T00:44:06;15.40;;;10.60;;
3757;SDS011;1894;51.038;13.692;2022-12-07T00:46:33;12.30;;;8.50;;
3757;SDS011;1894;51.038;13.692;2022-12-07T00:49:00;13.90;;;9.50;;
3757;SDS011;1894;51.038;13.692;2022-12-07T00:51:27;12.80;;;8.50;;
3757;SDS011;1894;51.038;13.692;2022-12-07T00:53:55;15.40;;;9.40;;
3757;SDS011;1894;51.038;13.692;2022-12-07T00:56:25;17.53;;;9.30;;
3757;SDS011;1894;51.038;13.692;2022-12-07T00:59:01;12.40;;;8.23;;
3757;SDS011;1894;51.038;13.692;2022-12-07T01:01:34;17.70;;;10.57;;
3757;SDS011;1894;51.038;13.692;2022-12-07T01:04:03;16.10;;;9.47;;
3757;SDS011;1894;51.038;13.692;2022-12-07T01:06:31;15.80;;;9.63;;
3757;SDS011;1894;51.038;13.692;2022-12-07T01:08:58;14.90;;;9.83;;
3757;SDS011;1894;51.038;13.692;2022-12-07T01:11:27;18.73;;;11.17;;
3757;SDS011;1894;51.038;13.692;2022-12-07T01:13:56;14.23;;;10.10;;
3757;SDS011;1894;51.038;13.692;2022-12-07T01:16:26;15.57;;;10.33;;
3757;SDS011;1894;51.038;13.692;2022-12-07T01:18:56;20.03;;;10.60;;
3757;SDS011;1894;51.038;13.692;2022-12-07T01:21:28;17.13;;;10.30;;
3757;SDS011;1894;51.038;13.692;2022-12-07T01:24:05;16.60;;;9.23;;
3757;SDS011;1894;51.038;13.692;2022-12-07T01:26:35;14.43;;;9.50;;
3757;SDS011;1894;51.038;13.692;2022-12-07T01:29:02;14.23;;;9.30;;
3757;SDS011;1894;51.038;13.692;2022-12-07T01:31:30;14.90;;;9.23;;
3757;SDS011;1894;51.038;13.692;2022-12-07T01:33:58;17.03;;;10.90;;
3757;SDS011;1894;51.038;13.692;2022-12-07T01:36:27;14.17;;;8.80;;
3757;SDS011;1894;51.038;13.692;2022-12-07T01:38:57;12.63;;;9.23;;
3757;SDS011;1894;51.038;13.692;2022-12-07T01:41:28;12.20;;;8.33;;
3757;SDS011;1894;51.038;13.692;2022-12-07T01:46:57;13.70;;;8.70;;
3757;SDS011;1894;51.038;13.692;2022-12-07T01:49:32;11.60;;;7.80;;
3757;SDS011;1894;51.038;13.692;2022-12-07T01:52:14;13.30;;;7.53;;
3757;SDS011;1894;51.038;13.692;2022-12-07T01:55:02;10.30;;;6.93;;
3757;SDS011;1894;51.038;13.692;2022-12-07T01:57:35;10.87;;;7.43;;
3757;SDS011;1894;51.038;13.692;2022-12-07T02:00:09;12.13;;;8.00;;
3757;SDS011;1894;51.038;13.692;2022-12-07T02:02:45;10.63;;;7.37;;
3757;SDS011;1894;51.038;13.692;2022-12-07T02:05:40;10.93;;;7.23;;
3757;SDS011;1894;51.038;13.692;2022-12-07T02:08:08;11.47;;;7.80;;
3757;SDS011;1894;51.038;13.692;2022-12-07T02:10:37;10.50;;;7.53;;
3757;SDS011;1894;51.038;13.692;2022-12-07T02:13:06;11.27;;;7.80;;
3757;SDS011;1894;51.038;13.692;2022-12-07T02:16:10;8.40;;;6.57;;
3757;SDS011;1894;51.038;13.692;2022-12-07T02:18:59;10.40;;;7.40;;
3757;SDS011;1894;51.038;13.692;2022-12-07T02:21:52;11.20;;;7.30;;
3757;SDS011;1894;51.038;13.692;2022-12-07T02:30:01;11.80;;;7.53;;
3757;SDS011;1894;51.038;13.692;2022-12-07T02:38:07;12.03;;;8.77;;
3757;SDS011;1894;51.038;13.692;2022-12-07T02:40:57;12.77;;;8.47;;
3757;SDS011;1894;51.038;13.692;2022-12-07T02:43:50;11.13;;;7.80;;
3757;SDS011;1894;51.038;13.692;2022-12-07T02:46:22;13.57;;;8.83;;
3757;SDS011;1894;51.038;13.692;2022-12-07T02:48:55;12.60;;;8.53;;
3757;SDS011;1894;51.038;13.692;2022-12-07T02:51:27;12.97;;;8.67;;
3757;SDS011;1894;51.038;13.692;2022-12-07T02:53:58;13.83;;;8.77;;
3757;SDS011;1894;51.038;13.692;2022-12-07T02:56:39;11.83;;;7.83;;
3757;SDS011;1894;51.038;13.692;2022-12-07T02:59:33;14.27;;;8.90;;
3757;SDS011;1894;51.038;13.692;2022-12-07T03:02:46;16.77;;;9.23;;
3757;SDS011;1894;51.038;13.692;2022-12-07T03:11:39;13.27;;;9.13;;
3757;SDS011;1894;51.038;13.692;2022-12-07T03:14:25;15.10;;;10.40;;
3757;SDS011;1894;51.038;13.692;2022-12-07T03:17:02;13.97;;;10.53;;
3757;SDS011;1894;51.038;13.692;2022-12-07T03:19:37;14.97;;;10.23;;
3757;SDS011;1894;51.038;13.692;2022-12-07T03:22:10;14.60;;;9.90;;
3757;SDS011;1894;51.038;13.692;2022-12-07T03:24:58;12.63;;;9.60;;
3757;SDS011;1894;51.038;13.692;2022-12-07T03:27:32;15.43;;;10.37;;
3757;SDS011;1894;51.038;13.692;2022-12-07T03:30:14;14.50;;;9.27;;
3757;SDS011;1894;51.038;13.692;2022-12-07T03:32:50;16.37;;;11.03;;
3757;SDS011;1894;51.038;13.692;2022-12-07T03:35:55;16.57;;;10.57;;
3757;SDS011;1894;51.038;13.692;2022-12-07T03:38:29;17.67;;;11.03;;
3757;SDS011;1894;51.038;13.692;2022-12-07T03:41:09;16.70;;;11.27;;
3757;SDS011;1894;51.038;13.692;2022-12-07T03:43:46;16.47;;;10.93;;
3757;SDS011;1894;51.038;13.692;2022-12-07T03:49:21;18.53;;;11.00;;
3757;SDS011;1894;51.038;13.692;2022-12-07T03:54:44;17.20;;;11.20;;
3757;SDS011;1894;51.038;13.692;2022-12-07T03:57:22;16.30;;;10.87;;
3757;SDS011;1894;51.038;13.692;2022-12-07T03:59:51;20.77;;;12.37;;
3757;SDS011;1894;51.038;13.692;2022-12-07T04:02:21;15.80;;;10.60;;
3757;SDS011;1894;51.038;13.692;2022-12-07T04:04:51;16.63;;;10.50;;
3757;SDS011;1894;51.038;13.692;2022-12-07T04:07:18;20.10;;;10.90;;
3757;SDS011;1894;51.038;13.692;2022-12-07T04:09:45;17.17;;;10.97;;
3757;SDS011;1894;51.038;13.692;2022-12-07T04:12:13;14.00;;;9.50;;
3757;SDS011;1894;51.038;13.692;2022-12-07T04:14:40;13.87;;;9.27;;
3757;SDS011;1894;51.038;13.692;2022-12-07T04:17:07;14.20;;;9.90;;
3757;SDS011;1894;51.038;13.692;2022-12-07T04:19:35;16.83;;;10.30;;
3757;SDS011;1894;51.038;13.692;2022-12-07T04:22:05;15.40;;;9.53;;
3757;SDS011;1894;51.038;13.692;2022-12-07T04:24:33;14.70;;;9.77;;
3757;SDS011;1894;51.038;13.692;2022-12-07T04:27:01;15.30;;;9.47;;
3757;SDS011;1894;51.038;13.692;2022-12-07T04:29:28;13.10;;;8.73;;
3757;SDS011;1894;51.038;13.692;2022-12-07T04:31:55;13.23;;;9.50;;
3757;SDS011;1894;51.038;13.692;2022-12-07T04:34:22;12.97;;;8.80;;
3757;SDS011;1894;51.038;13.692;2022-12-07T04:36:49;16.17;;;8.60;;
3757;SDS011;1894;51.038;13.692;2022-12-07T04:39:21;11.90;;;8.00;;
3757;SDS011;1894;51.038;13.692;2022-12-07T04:41:52;17.43;;;8.10;;
3757;SDS011;1894;51.038;13.692;2022-12-07T04:44:20;13.47;;;9.13;;
3757;SDS011;1894;51.038;13.692;2022-12-07T04:46:48;14.33;;;7.70;;
3757;SDS011;1894;51.038;13.692;2022-12-07T04:49:16;10.40;;;7.30;;
3757;SDS011;1894;51.038;13.692;2022-12-07T04:51:44;11.70;;;8.27;;
3757;SDS011;1894;51.038;13.692;2022-12-07T04:54:12;13.10;;;9.50;;
3757;SDS011;1894;51.038;13.692;2022-12-07T04:56:40;14.37;;;8.90;;
3757;SDS011;1894;51.038;13.692;2022-12-07T04:59:09;10.37;;;7.53;;
3757;SDS011;1894;51.038;13.692;2022-12-07T05:01:38;12.50;;;8.13;;
3757;SDS011;1894;51.038;13.692;2022-12-07T05:04:06;11.10;;;7.47;;
3757;SDS011;1894;51.038;13.692;2022-12-07T05:06:33;12.03;;;8.50;;
3757;SDS011;1894;51.038;13.692;2022-12-07T05:09:01;10.93;;;8.00;;
3757;SDS011;1894;51.038;13.692;2022-12-07T05:11:30;11.70;;;7.47;;
3757;SDS011;1894;51.038;13.692;2022-12-07T05:14:17;9.53;;;6.80;;
3757;SDS011;1894;51.038;13.692;2022-12-07T05:16:47;13.03;;;6.70;;
3757;SDS011;1894;51.038;13.692;2022-12-07T05:19:17;10.77;;;6.77;;
3757;SDS011;1894;51.038;13.692;2022-12-07T05:21:45;10.43;;;6.70;;
3757;SDS011;1894;51.038;13.692;2022-12-07T05:24:13;11.30;;;6.90;;
3757;SDS011;1894;51.038;13.692;2022-12-07T05:26:42;11.83;;;5.77;;
3757;SDS011;1894;51.038;13.692;2022-12-07T05:29:14;8.53;;;6.07;;
3757;SDS011;1894;51.038;13.692;2022-12-07T05:31:43;8.57;;;5.70;;
3757;SDS011;1894;51.038;13.692;2022-12-07T05:34:12;14.10;;;6.53;;
3757;SDS011;1894;51.038;13.692;2022-12-07T05:36:39;7.37;;;5.30;;
3757;SDS011;1894;51.038;13.692;2022-12-07T05:39:06;9.23;;;5.50;;
3757;SDS011;1894;51.038;13.692;2022-12-07T05:41:34;7.10;;;5.27;;
3757;SDS011;1894;51.038;13.692;2022-12-07T05:44:19;8.07;;;5.03;;
3757;SDS011;1894;51.038;13.692;2022-12-07T05:46:46;6.60;;;5.57;;
3757;SDS011;1894;51.038;13.692;2022-12-07T05:49:13;6.40;;;4.60;;
3757;SDS011;1894;51.038;13.692;2022-12-07T05:51:41;7.40;;;4.47;;
3757;SDS011;1894;51.038;13.692;2022-12-07T05:54:08;6.80;;;4.53;;
3757;SDS011;1894;51.038;13.692;2022-12-07T05:56:35;7.00;;;4.40;;
3757;SDS011;1894;51.038;13.692;2022-12-07T05:59:02;7.20;;;4.17;;
3757;SDS011;1894;51.038;13.692;2022-12-07T06:01:55;7.17;;;4.77;;
3757;SDS011;1894;51.038;13.692;2022-12-07T06:04:29;9.27;;;3.80;;
3757;SDS011;1894;51.038;13.692;2022-12-07T06:06:59;9.27;;;4.70;;
3757;SDS011;1894;51.038;13.692;2022-12-07T06:09:27;6.03;;;4.50;;
3757;SDS011;1894;51.038;13.692;2022-12-07T06:11:55;5.77;;;3.50;;
3757;SDS011;1894;51.038;13.692;2022-12-07T06:14:43;5.67;;;4.37;;
3757;SDS011;1894;51.038;13.692;2022-12-07T06:17:11;6.27;;;4.27;;
3757;SDS011;1894;51.038;13.692;2022-12-07T06:19:39;6.53;;;3.10;;
3757;SDS011;1894;51.038;13.692;2022-12-07T06:22:07;4.97;;;3.60;;
3757;SDS011;1894;51.038;13.692;2022-12-07T06:24:38;5.20;;;3.73;;
3757;SDS011;1894;51.038;13.692;2022-12-07T06:27:06;5.27;;;3.77;;
3757;SDS011;1894;51.038;13.692;2022-12-07T06:29:33;5.10;;;3.57;;
3757;SDS011;1894;51.038;13.692;2022-12-07T06:32:01;7.33;;;4.67;;
3757;SDS011;1894;51.038;13.692;2022-12-07T06:34:28;8.57;;;3.80;;
3757;SDS011;1894;51.038;13.692;2022-12-07T06:36:55;6.60;;;4.20;;
3757;SDS011;1894;51.038;13.692;2022-12-07T06:39:26;4.93;;;3.70;;
3757;SDS011;1894;51.038;13.692;2022-12-07T06:41:55;5.20;;;4.50;;
3757;SDS011;1894;51.038;13.692;2022-12-07T06:44:23;5.80;;;4.30;;
3757;SDS011;1894;51.038;13.692;2022-12-07T06:46:51;5.87;;;4.17;;
3757;SDS011;1894;51.038;13.692;2022-12-07T06:49:39;8.53;;;5.37;;
3757;SDS011;1894;51.038;13.692;2022-12-07T06:52:06;5.50;;;4.50;;
3757;SDS011;1894;51.038;13.692;2022-12-07T06:54:33;6.40;;;5.13;;
3757;SDS011;1894;51.038;13.692;2022-12-07T06:57:00;5.40;;;4.90;;
3757;SDS011;1894;51.038;13.692;2022-12-07T06:59:28;7.07;;;5.20;;
3757;SDS011;1894;51.038;13.692;2022-12-07T07:01:55;5.80;;;4.90;;
3757;SDS011;1894;51.038;13.692;2022-12-07T07:04:22;4.83;;;3.87;;
3757;SDS011;1894;51.038;13.692;2022-12-07T07:06:49;6.57;;;5.30;;
3757;SDS011;1894;51.038;13.692;2022-12-07T07:09:24;6.90;;;4.93;;
3757;SDS011;1894;51.038;13.692;2022-12-07T07:11:52;6.17;;;4.30;;
3757;SDS011;1894;51.038;13.692;2022-12-07T07:14:19;6.50;;;5.30;;
3757;SDS011;1894;51.038;13.692;2022-12-07T07:16:47;7.20;;;5.43;;
3757;SDS011;1894;51.038;13.692;2022-12-07T07:19:14;12.60;;;6.10;;
3757;SDS011;1894;51.038;13.692;2022-12-07T07:21:41;6.73;;;5.37;;
3757;SDS011;1894;51.038;13.692;2022-12-07T07:24:08;8.40;;;5.50;;
3757;SDS011;1894;51.038;13.692;2022-12-07T07:26:36;7.40;;;4.93;;
3757;SDS011;1894;51.038;13.692;2022-12-07T07:29:03;7.33;;;6.50;;
3757;SDS011;1894;51.038;13.692;2022-12-07T07:31:30;6.43;;;4.77;;
3757;SDS011;1894;51.038;13.692;2022-12-07T07:33:57;8.00;;;5.40;;
3757;SDS011;1894;51.038;13.692;2022-12-07T07:36:24;7.13;;;5.20;;
3757;SDS011;1894;51.038;13.692;2022-12-07T07:38:51;5.97;;;4.50;;
3757;SDS011;1894;51.038;13.692;2022-12-07T07:41:21;5.43;;;3.80;;
3757;SDS011;1894;51.038;13.692;2022-12-07T07:43:48;5.60;;;4.93;;
3757;SDS011;1894;51.038;13.692;2022-12-07T07:46:15;7.57;;;5.43;;
3757;SDS011;1894;51.038;13.692;2022-12-07T07:48:42;7.43;;;5.47;;
3757;SDS011;1894;51.038;13.692;2022-12-07T07:51:09;4.70;;;4.03;;
3757;SDS011;1894;51.038;13.692;2022-12-07T07:53:37;5.80;;;4.90;;
3757;SDS011;1894;51.038;13.692;2022-12-07T07:56:04;5.53;;;5.03;;
3757;SDS011;1894;51.038;13.692;2022-12-07T07:58:31;7.70;;;5.90;;
3757;SDS011;1894;51.038;13.692;2022-12-07T08:01:05;8.43;;;5.37;;
3757;SDS011;1894;51.038;13.692;2022-12-07T08:03:33;8.33;;;7.00;;
3757;SDS011;1894;51.038;13.692;2022-12-07T08:06:02;8.90;;;6.40;;
3757;SDS011;1894;51.038;13.692;2022-12-07T08:08:30;8.43;;;6.40;;
3757;SDS011;1894;51.038;13.692;2022-12-07T08:10:57;7.67;;;6.23;;
3757;SDS011;1894;51.038;13.692;2022-12-07T08:13:27;8.60;;;6.83;;
3757;SDS011;1894;51.038;13.692;2022-12-07T08:15:57;11.10;;;7.50;;
3757;SDS011;1894;51.038;13.692;2022-12-07T08:18:24;9.27;;;7.00;;
3757;SDS011;1894;51.038;13.692;2022-12-07T08:21:01;8.67;;;7.10;;
3757;SDS011;1894;51.038;13.692;2022-12-07T08:23:30;14.70;;;8.20;;
3757;SDS011;1894;51.038;13.692;2022-12-07T08:26:09;9.67;;;7.50;;
3757;SDS011;1894;51.038;13.692;2022-12-07T08:28:39;9.60;;;7.13;;
3757;SDS011;1894;51.038;13.692;2022-12-07T08:31:08;11.40;;;7.60;;
3757;SDS011;1894;51.038;13.692;2022-12-07T08:33:44;8.63;;;6.90;;
3757;SDS011;1894;51.038;13.692;2022-12-07T08:36:13;12.90;;;8.00;;
3757;SDS011;1894;51.038;13.692;2022-12-07T08:38:41;12.80;;;7.97;;
3757;SDS011;1894;51.038;13.692;2022-12-07T08:41:28;14.00;;;7.60;;
3757;SDS011;1894;51.038;13.692;2022-12-07T08:43:55;14.23;;;8.77;;
3757;SDS011;1894;51.038;13.692;2022-12-07T08:49:17;10.23;;;6.83;;
3757;SDS011;1894;51.038;13.692;2022-12-07T08:51:54;16.33;;;7.70;;
3757;SDS011;1894;51.038;13.692;2022-12-07T08:54:22;8.27;;;6.27;;
3757;SDS011;1894;51.038;13.692;2022-12-07T08:56:49;11.00;;;7.07;;
3757;SDS011;1894;51.038;13.692;2022-12-07T08:59:24;7.90;;;6.00;;
3757;SDS011;1894;51.038;13.692;2022-12-07T09:01:52;9.20;;;7.63;;
3757;SDS011;1894;51.038;13.692;2022-12-07T09:04:19;9.67;;;6.83;;
3757;SDS011;1894;51.038;13.692;2022-12-07T09:06:47;9.30;;;7.43;;
3757;SDS011;1894;51.038;13.692;2022-12-07T09:09:15;6.17;;;5.53;;
3757;SDS011;1894;51.038;13.692;2022-12-07T09:11:42;7.73;;;6.30;;
3757;SDS011;1894;51.038;13.692;2022-12-07T09:14:12;8.83;;;6.50;;
3757;SDS011;1894;51.038;13.692;2022-12-07T09:16:39;9.00;;;7.77;;
3757;SDS011;1894;51.038;13.692;2022-12-07T09:19:09;8.27;;;6.47;;
3757;SDS011;1894;51.038;13.692;2022-12-07T09:21:36;11.37;;;7.10;;
3757;SDS011;1894;51.038;13.692;2022-12-07T09:24:03;9.37;;;5.83;;
3757;SDS011;1894;51.038;13.692;2022-12-07T09:26:34;11.67;;;6.10;;
3757;SDS011;1894;51.038;13.692;2022-12-07T09:29:04;8.17;;;5.73;;
3757;SDS011;1894;51.038;13.692;2022-12-07T09:31:36;8.17;;;6.20;;
3757;SDS011;1894;51.038;13.692;2022-12-07T09:34:04;10.00;;;5.77;;
3757;SDS011;1894;51.038;13.692;2022-12-07T09:36:32;8.47;;;6.17;;
3757;SDS011;1894;51.038;13.692;2022-12-07T09:39:00;8.40;;;5.77;;
3757;SDS011;1894;51.038;13.692;2022-12-07T09:41:27;12.77;;;6.30;;
3757;SDS011;1894;51.038;13.692;2022-12-07T09:44:04;8.70;;;6.60;;
3757;SDS011;1894;51.038;13.692;2022-12-07T09:46:37;7.97;;;5.77;;
3757;SDS011;1894;51.038;13.692;2022-12-07T09:49:18;6.10;;;5.00;;
3757;SDS011;1894;51.038;13.692;2022-12-07T09:54:35;6.37;;;4.20;;
3757;SDS011;1894;51.038;13.692;2022-12-07T09:57:08;6.43;;;4.40;;
3757;SDS011;1894;51.038;13.692;2022-12-07T09:59:39;6.93;;;3.90;;
3757;SDS011;1894;51.038;13.692;2022-12-07T10:02:33;5.30;;;4.47;;
3757;SDS011;1894;51.038;13.692;2022-12-07T10:05:03;6.13;;;4.93;;
3757;SDS011;1894;51.038;13.692;2022-12-07T10:07:33;7.17;;;5.30;;
3757;SDS011;1894;51.038;13.692;2022-12-07T10:10:04;12.83;;;4.23;;
3757;SDS011;1894;51.038;13.692;2022-12-07T10:13:05;6.50;;;4.37;;
3757;SDS011;1894;51.038;13.692;2022-12-07T10:18:55;5.20;;;3.50;;
3757;SDS011;1894;51.038;13.692;2022-12-07T10:21:17;7.63;;;4.87;;
3757;SDS011;1894;51.038;13.692;2022-12-07T10:24:03;6.67;;;4.80;;
3757;SDS011;1894;51.038;13.692;2022-12-07T10:26:41;7.50;;;4.10;;
3757;SDS011;1894;51.038;13.692;2022-12-07T10:34:40;6.10;;;4.50;;
3757;SDS011;1894;51.038;13.692;2022-12-07T10:37:17;9.40;;;5.20;;
3757;SDS011;1894;51.038;13.692;2022-12-07T10:39:47;6.63;;;4.87;;
3757;SDS011;1894;51.038;13.692;2022-12-07T10:42:20;8.70;;;5.23;;
3757;SDS011;1894;51.038;13.692;2022-12-07T10:45:14;7.30;;;5.03;;
3757;SDS011;1894;51.038;13.692;2022-12-07T10:47:48;9.13;;;5.07;;
3757;SDS011;1894;51.038;13.692;2022-12-07T10:50:48;5.97;;;5.10;;
3757;SDS011;1894;51.038;13.692;2022-12-07T11:19:47;8.30;;;4.57;;
3757;SDS011;1894;51.038;13.692;2022-12-07T11:22:45;7.37;;;3.80;;
3757;SDS011;1894;51.038;13.692;2022-12-07T11:37:42;7.43;;;5.47;;
3757;SDS011;1894;51.038;13.692;2022-12-07T11:45:29;9.33;;;6.20;;
3757;SDS011;1894;51.038;13.692;2022-12-07T11:48:01;9.77;;;6.43;;
3757;SDS011;1894;51.038;13.692;2022-12-07T12:01:44;17.60;;;8.33;;
3757;SDS011;1894;51.038;13.692;2022-12-07T12:06:59;8.60;;;6.57;;
3757;SDS011;1894;51.038;13.692;2022-12-07T12:09:52;16.20;;;6.87;;
3757;SDS011;1894;51.038;13.692;2022-12-07T12:12:43;9.23;;;5.67;;
3757;SDS011;1894;51.038;13.692;2022-12-07T12:16:07;6.63;;;5.03;;
3757;SDS011;1894;51.038;13.692;2022-12-07T12:21:55;11.17;;;5.27;;
3757;SDS011;1894;51.038;13.692;2022-12-07T12:24:31;8.73;;;5.80;;
3757;SDS011;1894;51.038;13.692;2022-12-07T12:27:06;8.37;;;5.83;;
3757;SDS011;1894;51.038;13.692;2022-12-07T12:29:45;6.43;;;4.23;;
3757;SDS011;1894;51.038;13.692;2022-12-07T12:32:22;11.00;;;4.40;;
3757;SDS011;1894;51.038;13.692;2022-12-07T12:35:29;7.07;;;3.93;;
3757;SDS011;1894;51.038;13.692;2022-12-07T12:41:01;3.47;;;2.40;;
3757;SDS011;1894;51.038;13.692;2022-12-07T12:51:43;2.03;;;1.80;;
3757;SDS011;1894;51.038;13.692;2022-12-07T12:54:20;5.80;;;2.40;;
3757;SDS011;1894;51.038;13.692;2022-12-07T13:02:21;7.77;;;4.13;;
3757;SDS011;1894;51.038;13.692;2022-12-07T13:05:14;6.20;;;5.20;;
3757;SDS011;1894;51.038;13.692;2022-12-07T13:15:42;13.83;;;5.50;;
3757;SDS011;1894;51.038;13.692;2022-12-07T13:23:36;7.67;;;5.40;;
3757;SDS011;1894;51.038;13.692;2022-12-07T13:34:33;6.67;;;3.80;;
3757;SDS011;1894;51.038;13.692;2022-12-07T13:37:10;8.60;;;4.67;;
3757;SDS011;1894;51.038;13.692;2022-12-07T13:40:17;5.03;;;4.47;;
3757;SDS011;1894;51.038;13.692;2022-12-07T13:42:56;6.50;;;3.47;;
3757;SDS011;1894;51.038;13.692;2022-12-07T13:45:32;5.33;;;4.10;;
3757;SDS011;1894;51.038;13.692;2022-12-07T13:50:52;4.40;;;3.80;;
3757;SDS011;1894;51.038;13.692;2022-12-07T13:53:24;4.90;;;4.50;;
3757;SDS011;1894;51.038;13.692;2022-12-07T13:55:56;5.57;;;3.93;;
3757;SDS011;1894;51.038;13.692;2022-12-07T13:58:25;5.10;;;4.43;;
3757;SDS011;1894;51.038;13.692;2022-12-07T14:00:57;4.43;;;4.03;;
3757;SDS011;1894;51.038;13.692;2022-12-07T14:03:26;8.07;;;5.30;;
3757;SDS011;1894;51.038;13.692;2022-12-07T14:06:13;5.20;;;4.57;;
3757;SDS011;1894;51.038;13.692;2022-12-07T14:08:48;7.20;;;6.50;;
3757;SDS011;1894;51.038;13.692;2022-12-07T14:11:28;12.50;;;6.10;;
3757;SDS011;1894;51.038;13.692;2022-12-07T14:14:00;7.50;;;5.73;;
3757;SDS011;1894;51.038;13.692;2022-12-07T14:16:30;8.53;;;4.80;;
3757;SDS011;1894;51.038;13.692;2022-12-07T14:19:00;8.57;;;4.90;;
3757;SDS011;1894;51.038;13.692;2022-12-07T14:21:33;7.63;;;5.50;;
3757;SDS011;1894;51.038;13.692;2022-12-07T14:26:41;7.77;;;5.20;;
3757;SDS011;1894;51.038;13.692;2022-12-07T14:32:25;7.53;;;4.17;;
3757;SDS011;1894;51.038;13.692;2022-12-07T14:34:56;6.70;;;3.63;;
3757;SDS011;1894;51.038;13.692;2022-12-07T14:37:27;7.00;;;4.80;;
3757;SDS011;1894;51.038;13.692;2022-12-07T14:39:55;4.50;;;3.80;;
3757;SDS011;1894;51.038;13.692;2022-12-07T14:42:24;6.80;;;3.30;;
3757;SDS011;1894;51.038;13.692;2022-12-07T14:44:55;5.00;;;3.30;;
3757;SDS011;1894;51.038;13.692;2022-12-07T14:47:24;4.33;;;3.43;;
3757;SDS011;1894;51.038;13.692;2022-12-07T14:50:17;7.60;;;3.23;;
3757;SDS011;1894;51.038;13.692;2022-12-07T14:52:54;5.20;;;2.30;;
3757;SDS011;1894;51.038;13.692;2022-12-07T14:55:45;3.27;;;2.60;;
3757;SDS011;1894;51.038;13.692;2022-12-07T14:58:16;4.47;;;2.30;;
3757;SDS011;1894;51.038;13.692;2022-12-07T15:00:44;2.90;;;2.20;;
3757;SDS011;1894;51.038;13.692;2022-12-07T15:03:11;3.10;;;2.27;;
3757;SDS011;1894;51.038;13.692;2022-12-07T15:05:39;7.80;;;2.50;;
3757;SDS011;1894;51.038;13.692;2022-12-07T15:08:11;3.10;;;1.90;;
3757;SDS011;1894;51.038;13.692;2022-12-07T15:10:39;4.67;;;2.50;;
3757;SDS011;1894;51.038;13.692;2022-12-07T15:13:06;4.90;;;2.50;;
3757;SDS011;1894;51.038;13.692;2022-12-07T15:15:54;2.80;;;2.10;;
3757;SDS011;1894;51.038;13.692;2022-12-07T15:18:22;3.30;;;2.23;;
3757;SDS011;1894;51.038;13.692;2022-12-07T15:20:50;3.77;;;2.57;;
3757;SDS011;1894;51.038;13.692;2022-12-07T15:23:17;3.97;;;1.80;;
3757;SDS011;1894;51.038;13.692;2022-12-07T15:25:46;2.43;;;2.13;;
3757;SDS011;1894;51.038;13.692;2022-12-07T15:28:14;3.20;;;1.67;;
3757;SDS011;1894;51.038;13.692;2022-12-07T15:30:43;5.40;;;2.57;;
3757;SDS011;1894;51.038;13.692;2022-12-07T15:33:11;1.93;;;1.63;;
3757;SDS011;1894;51.038;13.692;2022-12-07T15:35:43;7.77;;;2.30;;
3757;SDS011;1894;51.038;13.692;2022-12-07T15:38:11;4.00;;;2.40;;
3757;SDS011;1894;51.038;13.692;2022-12-07T15:40:39;1.90;;;1.60;;
3757;SDS011;1894;51.038;13.692;2022-12-07T15:43:08;6.73;;;1.60;;
3757;SDS011;1894;51.038;13.692;2022-12-07T15:45:56;4.23;;;1.83;;
3757;SDS011;1894;51.038;13.692;2022-12-07T15:48:23;3.07;;;1.73;;
3757;SDS011;1894;51.038;13.692;2022-12-07T15:51:01;3.17;;;1.30;;
3757;SDS011;1894;51.038;13.692;2022-12-07T15:53:33;3.57;;;2.40;;
3757;SDS011;1894;51.038;13.692;2022-12-07T15:56:01;9.33;;;2.37;;
3757;SDS011;1894;51.038;13.692;2022-12-07T15:58:32;7.30;;;2.23;;
3757;SDS011;1894;51.038;13.692;2022-12-07T16:01:00;2.93;;;1.43;;
3757;SDS011;1894;51.038;13.692;2022-12-07T16:03:36;6.40;;;1.57;;
3757;SDS011;1894;51.038;13.692;2022-12-07T16:06:04;2.97;;;2.03;;
3757;SDS011;1894;51.038;13.692;2022-12-07T16:08:32;4.93;;;2.10;;
3757;SDS011;1894;51.038;13.692;2022-12-07T16:11:05;6.63;;;1.80;;
3757;SDS011;1894;51.038;13.692;2022-12-07T16:13:33;3.83;;;2.30;;
3757;SDS011;1894;51.038;13.692;2022-12-07T16:16:04;3.30;;;2.30;;
3757;SDS011;1894;51.038;13.692;2022-12-07T16:18:34;4.93;;;2.80;;
3757;SDS011;1894;51.038;13.692;2022-12-07T16:21:01;6.30;;;2.83;;
3757;SDS011;1894;51.038;13.692;2022-12-07T16:23:29;7.47;;;2.07;;
3757;SDS011;1894;51.038;13.692;2022-12-07T16:26:04;3.80;;;2.03;;
3757;SDS011;1894;51.038;13.692;2022-12-07T16:28:37;6.33;;;3.00;;
3757;SDS011;1894;51.038;13.692;2022-12-07T16:31:09;3.60;;;1.60;;
3757;SDS011;1894;51.038;13.692;2022-12-07T16:33:41;4.80;;;2.90;;
3757;SDS011;1894;51.038;13.692;2022-12-07T16:36:10;3.37;;;2.20;;
3757;SDS011;1894;51.038;13.692;2022-12-07T16:38:39;6.13;;;1.77;;
3757;SDS011;1894;51.038;13.692;2022-12-07T16:41:07;6.63;;;2.30;;
3757;SDS011;1894;51.038;13.692;2022-12-07T16:43:35;3.70;;;2.70;;
3757;SDS011;1894;51.038;13.692;2022-12-07T16:46:03;3.50;;;2.03;;
3757;SDS011;1894;51.038;13.692;2022-12-07T16:48:31;2.60;;;2.00;;
3757;SDS011;1894;51.038;13.692;2022-12-07T16:51:05;7.80;;;1.83;;
3757;SDS011;1894;51.038;13.692;2022-12-07T16:53:37;3.47;;;1.57;;
3757;SDS011;1894;51.038;13.692;2022-12-07T16:56:14;3.57;;;1.70;;
3757;SDS011;1894;51.038;13.692;2022-12-07T16:58:42;3.73;;;1.50;;
3757;SDS011;1894;51.038;13.692;2022-12-07T17:01:11;6.63;;;1.77;;
3757;SDS011;1894;51.038;13.692;2022-12-07T17:03:44;4.07;;;1.80;;
3757;SDS011;1894;51.038;13.692;2022-12-07T17:06:17;2.40;;;2.00;;
3757;SDS011;1894;51.038;13.692;2022-12-07T17:08:50;9.20;;;2.20;;
3757;SDS011;1894;51.038;13.692;2022-12-07T17:11:20;3.83;;;2.13;;
3757;SDS011;1894;51.038;13.692;2022-12-07T17:13:51;4.53;;;2.90;;
3757;SDS011;1894;51.038;13.692;2022-12-07T17:16:37;6.33;;;2.20;;
3757;SDS011;1894;51.038;13.692;2022-12-07T17:19:05;5.67;;;2.80;;
3757;SDS011;1894;51.038;13.692;2022-12-07T17:21:35;5.03;;;2.03;;
3757;SDS011;1894;51.038;13.692;2022-12-07T17:24:03;4.43;;;2.27;;
3757;SDS011;1894;51.038;13.692;2022-12-07T17:26:33;2.93;;;2.00;;
3757;SDS011;1894;51.038;13.692;2022-12-07T17:29:02;6.80;;;3.40;;
3757;SDS011;1894;51.038;13.692;2022-12-07T17:31:31;5.30;;;2.20;;
3757;SDS011;1894;51.038;13.692;2022-12-07T17:33:59;1.57;;;1.47;;
3757;SDS011;1894;51.038;13.692;2022-12-07T17:36:28;3.60;;;2.27;;
3757;SDS011;1894;51.038;13.692;2022-12-07T17:38:57;2.77;;;2.57;;
3757;SDS011;1894;51.038;13.692;2022-12-07T17:41:26;4.33;;;2.40;;
3757;SDS011;1894;51.038;13.692;2022-12-07T17:44:14;5.33;;;2.57;;
3757;SDS011;1894;51.038;13.692;2022-12-07T17:46:45;3.43;;;2.87;;
3757;SDS011;1894;51.038;13.692;2022-12-07T17:49:15;4.20;;;2.70;;
3757;SDS011;1894;51.038;13.692;2022-12-07T17:51:42;4.30;;;3.00;;
3757;SDS011;1894;51.038;13.692;2022-12-07T17:54:28;2.90;;;2.53;;
3757;SDS011;1894;51.038;13.692;2022-12-07T17:56:55;4.90;;;2.73;;